Time;durP1;ratioP1;P1;durP2;ratioP2;P2;SDS_P1;SDS_P2;PMS_P1;PMS_P2;Temp;Humidity;BMP_temperature;BMP_pressure;BME280_temperature;BME280_humidity;BME280_pressure;Samples;Min_cycle;Max_cycle;Signal;HPM_P1;HPM_P2
2023/09/04 00:00:55;;;;;;;3.38;3.05;;;;;;;17.97;68.37;97731.25;6214950;23;20021;-78
2023/09/04 00:03:26;;;;;;;2.90;2.38;;;;;;;17.92;68.40;97729.22;6214934;23;20048;-78
2023/09/04 00:05:54;;;;;;;3.45;3.03;;;;;;;17.93;71.37;97727.44;6216223;23;20099;-78
2023/09/04 00:08:25;;;;;;;4.95;3.42;;;;;;;18.01;74.98;97719.28;6228526;23;20343;-78
2023/09/04 00:10:54;;;;;;;7.00;4.27;;;;;;;18.09;77.44;97726.22;6215950;23;20051;-78
2023/09/04 00:13:22;;;;;;;4.90;3.63;;;;;;;18.10;74.33;97733.09;6215436;23;20254;-78
2023/09/04 00:15:55;;;;;;;5.32;3.58;;;;;;;18.03;70.69;97732.31;6215723;23;20075;-78
2023/09/04 00:18:24;;;;;;;7.55;3.78;;;;;;;18.02;73.59;97731.50;6215329;23;20017;-78
2023/09/04 00:20:53;;;;;;;4.72;3.22;;;;;;;18.06;76.20;97727.44;6215482;23;20024;-78
2023/09/04 00:23:21;;;;;;;4.78;3.72;;;;;;;18.04;75.41;97724.19;6215042;23;20028;-79
2023/09/04 00:25:51;;;;;;;6.13;3.70;;;;;;;18.00;72.09;97725.59;6214787;23;20044;-78
2023/09/04 00:28:20;;;;;;;4.03;3.70;;;;;;;17.98;74.64;97724.19;6215149;23;20020;-78
2023/09/04 00:30:49;;;;;;;3.78;3.40;;;;;;;17.96;74.47;97719.09;6215132;23;20104;-78
2023/09/04 00:33:17;;;;;;;4.75;3.80;;;;;;;17.91;71.87;97717.06;6214636;23;20091;-78
2023/09/04 00:35:45;;;;;;;4.13;3.40;;;;;;;17.81;70.07;97721.88;6214647;23;20016;-78
2023/09/04 00:38:14;;;;;;;4.78;3.53;;;;;;;17.67;69.65;97713.13;6214767;23;20020;-78
2023/09/04 00:40:42;;;;;;;4.50;3.55;;;;;;;17.55;69.18;97714.72;6224797;23;20025;-78
2023/09/04 00:43:11;;;;;;;4.47;3.40;;;;;;;17.48;69.82;97713.88;6231165;23;20024;-78
2023/09/04 00:45:40;;;;;;;4.68;3.20;;;;;;;17.47;69.78;97702.53;6219524;23;20024;-78
2023/09/04 00:48:08;;;;;;;6.60;3.88;;;;;;;17.45;69.53;97706.38;6215348;23;20095;-79
2023/09/04 00:50:37;;;;;;;5.05;3.22;;;;;;;17.48;70.94;97711.25;6215490;23;20028;-79
2023/09/04 00:53:07;;;;;;;4.00;3.10;;;;;;;17.47;69.87;97710.44;6214929;23;20017;-78
2023/09/04 00:55:36;;;;;;;4.10;3.70;;;;;;;17.40;69.19;97691.13;6215232;23;20040;-78
2023/09/04 00:58:05;;;;;;;6.82;3.45;;;;;;;17.32;69.11;97698.41;6215209;23;20028;-78
2023/09/04 01:00:34;;;;;;;4.32;3.20;;;;;;;17.25;69.55;97703.66;6214951;23;20027;-78
2023/09/04 01:03:04;;;;;;;6.07;3.92;;;;;;;17.23;69.70;97701.22;6216321;23;20541;-78
2023/09/04 01:05:32;;;;;;;4.25;3.85;;;;;;;17.24;69.54;97700.19;6215128;23;20074;-78
2023/09/04 01:08:01;;;;;;;4.57;3.92;;;;;;;17.24;69.54;97692.28;6214483;23;20017;-78
2023/09/04 01:10:35;;;;;;;6.38;3.72;;;;;;;17.27;73.06;97705.09;6214990;23;20021;-79
2023/09/04 01:13:10;;;;;;;5.45;3.65;;;;;;;17.35;74.55;97703.28;6214430;23;20013;-78
2023/09/04 01:15:39;;;;;;;7.35;4.03;;;;;;;17.40;74.31;97698.22;6215032;23;20017;-78
2023/09/04 01:18:08;;;;;;;5.82;4.60;;;;;;;17.50;77.02;97690.75;6214451;23;20136;-78
2023/09/04 01:20:38;;;;;;;4.82;3.83;;;;;;;17.55;77.41;97692.78;6217393;23;20017;-78
2023/09/04 01:23:06;;;;;;;5.45;3.50;;;;;;;17.51;74.01;97692.38;6222464;23;20075;-78
2023/09/04 01:25:44;;;;;;;4.00;3.60;;;;;;;17.46;76.46;97690.34;6216807;23;20025;-78
2023/09/04 01:28:21;;;;;;;4.68;3.75;;;;;;;17.43;72.89;97689.94;6216501;23;20028;-79
2023/09/04 01:30:58;;;;;;;6.05;3.90;;;;;;;17.36;72.34;97697.81;6216509;23;20027;-78
2023/09/04 01:33:33;;;;;;;4.68;4.00;;;;;;;17.31;73.44;97694.94;6216082;23;20017;-78
2023/09/04 01:36:06;;;;;;;5.72;4.68;;;;;;;17.36;78.35;97683.81;6216922;23;20020;-78
2023/09/04 01:38:35;;;;;;;7.60;3.97;;;;;;;17.34;73.34;97688.47;6216883;23;20025;-78
2023/09/04 01:41:04;;;;;;;6.63;4.30;;;;;;;17.35;75.55;97682.19;6216175;23;20024;-79
2023/09/04 01:43:32;;;;;;;5.22;3.80;;;;;;;17.33;72.53;97686.84;6216010;23;20024;-79
2023/09/04 01:46:00;;;;;;;4.60;4.20;;;;;;;17.32;76.69;97686.03;6217034;23;20082;-78
2023/09/04 01:48:27;;;;;;;5.63;3.50;;;;;;;17.26;72.65;97695.53;6216719;23;20044;-78
2023/09/04 01:50:55;;;;;;;4.53;3.90;;;;;;;17.20;73.21;97680.50;6216069;23;20409;-78
2023/09/04 01:53:24;;;;;;;4.60;4.00;;;;;;;17.19;73.42;97678.91;6216285;23;20067;-78
2023/09/04 01:55:51;;;;;;;4.68;4.18;;;;;;;17.14;72.31;97686.56;6216023;23;20474;-78
2023/09/04 01:58:19;;;;;;;7.05;4.07;;;;;;;17.17;76.80;97685.38;6216169;23;20401;-78
2023/09/04 02:00:48;;;;;;;4.13;3.72;;;;;;;17.17;73.40;97680.09;6216315;23;20425;-78
2023/09/04 02:03:15;;;;;;;6.25;4.40;;;;;;;17.13;71.76;97689.41;6216162;23;20528;-78
2023/09/04 02:05:43;;;;;;;5.82;4.13;;;;;;;17.06;71.42;97689.38;6216273;23;20017;-78
2023/09/04 02:08:11;;;;;;;6.82;4.30;;;;;;;17.01;71.84;97689.97;6216467;23;20027;-78
2023/09/04 02:10:40;;;;;;;7.50;4.68;;;;;;;17.01;72.70;97692.63;6216313;23;20052;-78
2023/09/04 02:13:07;;;;;;;5.40;3.80;;;;;;;17.02;71.77;97691.59;6216064;23;20017;-78
2023/09/04 02:15:37;;;;;;;4.65;4.25;;;;;;;17.07;73.25;97686.53;6215775;23;20079;-78
2023/09/04 02:18:05;;;;;;;5.45;4.20;;;;;;;17.04;71.89;97686.94;6216167;23;20028;-78
2023/09/04 02:20:32;;;;;;;4.50;4.10;;;;;;;17.00;73.33;97684.91;6216113;23;20016;-78
2023/09/04 02:23:00;;;;;;;5.15;4.65;;;;;;;17.05;75.92;97687.75;6215968;23;20387;-78
2023/09/04 02:25:28;;;;;;;4.57;3.80;;;;;;;17.05;74.66;97683.31;6216411;23;20024;-78
2023/09/04 02:27:57;;;;;;;5.50;4.22;;;;;;;17.04;72.65;97675.59;6216416;23;20025;-78
2023/09/04 02:30:24;;;;;;;7.28;5.10;;;;;;;16.99;71.53;97673.53;6215621;23;20024;-78
2023/09/04 02:32:52;;;;;;;5.45;4.45;;;;;;;16.95;72.00;97677.56;6216021;23;20029;-78
2023/09/04 02:35:20;;;;;;;6.38;4.15;;;;;;;16.94;71.38;97675.13;6216081;23;20361;-77
2023/09/04 02:37:47;;;;;;;8.48;4.53;;;;;;;16.93;71.75;97670.88;6215629;23;20071;-78
2023/09/04 02:40:15;;;;;;;6.10;3.40;;;;;;;16.91;70.54;97667.63;6215347;23;20047;-78
2023/09/04 02:42:42;;;;;;;3.97;3.60;;;;;;;16.94;72.52;97668.03;6215552;23;20083;-78
2023/09/04 02:45:12;;;;;;;5.00;4.35;;;;;;;17.02;74.88;97662.59;6215900;23;20029;-78
2023/09/04 02:47:39;;;;;;;3.88;3.58;;;;;;;17.06;70.92;97663.03;6216565;23;20020;-78
2023/09/04 02:50:08;;;;;;;5.95;4.05;;;;;;;17.09;71.43;97666.06;6216005;23;20025;-78
2023/09/04 02:52:35;;;;;;;7.57;4.20;;;;;;;17.16;75.15;97666.09;6215646;23;20020;-78
2023/09/04 02:55:04;;;;;;;5.00;3.83;;;;;;;17.21;73.34;97663.69;6215968;23;20021;-78
2023/09/04 02:57:32;;;;;;;4.88;4.20;;;;;;;17.26;74.51;97663.91;6216128;23;20402;-78
2023/09/04 03:00:00;;;;;;;4.50;3.92;;;;;;;17.30;73.96;97657.22;6215688;23;20021;-78
2023/09/04 03:02:29;;;;;;;5.45;4.90;;;;;;;17.35;75.77;97663.72;6215716;23;20347;-78
2023/09/04 03:04:57;;;;;;;6.97;4.90;;;;;;;17.29;71.49;97666.16;6215796;23;20375;-78
2023/09/04 03:07:26;;;;;;;6.78;4.30;;;;;;;17.21;72.01;97661.06;6215714;23;20024;-78
2023/09/04 03:09:56;;;;;;;11.07;5.05;;;;;;;17.19;72.16;97673.63;6215620;23;20024;-78
2023/09/04 03:12:24;;;;;;;8.05;5.43;;;;;;;17.12;71.33;97667.53;6215782;23;20027;-78
2023/09/04 03:14:56;;;;;;;8.68;5.65;;;;;;;17.12;73.26;97674.59;6214875;23;20017;-78
2023/09/04 03:17:24;;;;;;;6.57;5.30;;;;;;;17.17;74.58;97670.38;6215188;23;20031;-78
2023/09/04 03:19:55;;;;;;;7.03;5.85;;;;;;;17.22;76.84;97673.22;6215704;23;20039;-78
2023/09/04 03:22:23;;;;;;;6.07;5.47;;;;;;;17.23;76.64;97666.94;6215236;23;20056;-78
2023/09/04 03:24:51;;;;;;;5.50;4.90;;;;;;;17.23;76.86;97664.31;6215301;23;20610;-78
2023/09/04 03:27:19;;;;;;;6.03;4.57;;;;;;;17.16;72.35;97668.72;6217711;23;20048;-78
2023/09/04 03:29:47;;;;;;;4.85;4.35;;;;;;;17.06;72.92;97673.56;6235301;23;20024;-78
2023/09/04 03:32:14;;;;;;;7.15;4.65;;;;;;;17.03;74.18;97668.69;6233461;23;20025;-78
2023/09/04 03:34:42;;;;;;;5.22;4.57;;;;;;;17.05;76.03;97675.41;6224626;23;20117;-78
2023/09/04 03:37:11;;;;;;;6.43;4.65;;;;;;;16.95;73.16;97682.03;6216383;23;20055;-78
2023/09/04 03:39:39;;;;;;;5.53;4.60;;;;;;;16.88;73.72;97684.66;6215815;23;20031;-77
2023/09/04 03:42:07;;;;;;;6.95;4.57;;;;;;;16.85;72.20;97683.19;6215195;23;20469;-78
2023/09/04 03:44:35;;;;;;;5.78;4.50;;;;;;;16.81;71.45;97681.16;6214831;23;20025;-78
2023/09/04 03:47:03;;;;;;;8.38;5.13;;;;;;;16.75;70.64;97681.88;6214834;23;20020;-78
2023/09/04 03:49:31;;;;;;;5.93;4.70;;;;;;;16.68;71.27;97687.13;6215403;23;20029;-78
2023/09/04 03:52:00;;;;;;;7.07;5.18;;;;;;;16.62;70.51;97695.81;6215009;23;20311;-78
2023/09/04 03:54:29;;;;;;;6.43;5.72;;;;;;;16.59;71.31;97698.81;6215150;23;20020;-78
2023/09/04 03:56:57;;;;;;;5.75;5.07;;;;;;;16.64;74.36;97701.72;6215266;23;20052;-78
2023/09/04 03:59:25;;;;;;;5.85;4.75;;;;;;;16.61;72.31;97696.81;6215499;23;20020;-77
2023/09/04 04:01:53;;;;;;;8.27;4.80;;;;;;;16.61;71.41;97707.34;6215301;23;20025;-78
2023/09/04 04:04:21;;;;;;;6.97;5.03;;;;;;;16.53;70.56;97695.16;6215350;23;20021;-77
2023/09/04 04:06:48;;;;;;;10.02;5.70;;;;;;;16.45;70.40;97709.28;6215526;23;20409;-78
2023/09/04 04:09:17;;;;;;;7.85;5.38;;;;;;;16.38;70.35;97703.16;6214843;23;20040;-78
2023/09/04 04:11:46;;;;;;;6.45;5.68;;;;;;;16.31;70.72;97707.56;6215388;23;20392;-78
2023/09/04 04:14:13;;;;;;;5.90;4.93;;;;;;;16.26;70.68;97710.75;6214941;23;20063;-78
2023/09/04 04:16:41;;;;;;;5.70;5.10;;;;;;;16.25;71.32;97713.59;6215536;23;20090;-78
2023/09/04 04:19:08;;;;;;;6.15;5.40;;;;;;;16.26;71.85;97720.47;6215378;23;20091;-77
2023/09/04 04:21:36;;;;;;;5.43;4.93;;;;;;;16.28;71.52;97715.81;6215169;23;20083;-78
2023/09/04 04:24:05;;;;;;;7.60;5.68;;;;;;;16.27;70.65;97716.84;6215197;23;20099;-78
2023/09/04 04:26:32;;;;;;;8.07;6.10;;;;;;;16.24;70.39;97711.94;6216178;23;20079;-78
2023/09/04 04:29:01;;;;;;;8.27;6.80;;;;;;;16.22;70.36;97711.31;6215322;23;20410;-78
2023/09/04 04:31:29;;;;;;;8.52;5.53;;;;;;;16.18;70.38;97712.69;6215815;23;20079;-78
2023/09/04 04:33:56;;;;;;;9.68;7.10;;;;;;;16.12;70.43;97703.75;6215331;23;20039;-78
2023/09/04 04:36:24;;;;;;;6.78;5.65;;;;;;;16.10;70.41;97705.75;6215183;23;20031;-78
2023/09/04 04:38:52;;;;;;;13.65;6.28;;;;;;;16.06;70.25;97707.94;6214879;23;20086;-78
2023/09/04 04:41:20;;;;;;;6.30;5.20;;;;;;;16.03;70.42;97708.34;6214747;23;20024;-78
2023/09/04 04:43:48;;;;;;;7.97;5.35;;;;;;;16.02;70.50;97709.31;6214727;23;20060;-78
2023/09/04 04:46:17;;;;;;;6.13;5.53;;;;;;;16.02;70.85;97709.31;6214868;23;20025;-78
2023/09/04 04:48:45;;;;;;;5.82;5.03;;;;;;;16.06;70.58;97709.78;6214779;23;20025;-78
2023/09/04 04:51:12;;;;;;;20.17;12.90;;;;;;;16.09;70.49;97704.13;6214769;23;20024;-78
2023/09/04 04:53:40;;;;;;;14.88;8.13;;;;;;;16.10;70.49;97702.31;6214281;23;20406;-78
2023/09/04 04:56:07;;;;;;;5.70;4.88;;;;;;;16.14;70.68;97703.56;6214822;23;20021;-78
2023/09/04 04:58:35;;;;;;;5.68;5.03;;;;;;;16.17;70.23;97708.44;6214969;23;20094;-78
2023/09/04 05:01:05;;;;;;;7.65;5.25;;;;;;;16.22;70.87;97703.41;6214592;23;20021;-78
2023/09/04 05:03:34;;;;;;;7.20;5.38;;;;;;;16.29;70.68;97704.31;6214697;23;20032;-78
2023/09/04 05:06:02;;;;;;;9.80;5.50;;;;;;;16.30;69.91;97700.66;6214671;23;20466;-78
2023/09/04 05:08:29;;;;;;;5.93;4.57;;;;;;;16.33;70.17;97700.25;6215147;23;20021;-77
2023/09/04 05:11:00;;;;;;;6.03;5.13;;;;;;;16.33;69.63;97705.53;6214611;23;20024;-78
2023/09/04 05:13:28;;;;;;;5.78;5.07;;;;;;;16.30;69.38;97703.28;6214840;23;20025;-77
2023/09/04 05:15:55;;;;;;;7.88;5.15;;;;;;;16.26;69.29;97708.09;6214748;23;20020;-77
2023/09/04 05:18:23;;;;;;;5.97;5.40;;;;;;;16.25;69.30;97708.31;6214989;23;20048;-78
2023/09/04 05:20:53;;;;;;;5.53;5.05;;;;;;;16.24;69.23;97702.22;6214723;23;20100;-78
2023/09/04 05:23:20;;;;;;;5.80;4.82;;;;;;;16.24;69.27;97709.31;6214387;23;20021;-78
2023/09/04 05:25:48;;;;;;;5.65;5.07;;;;;;;16.24;69.16;97704.03;6214942;23;20024;-78
2023/09/04 05:28:16;;;;;;;10.05;5.90;;;;;;;16.24;69.30;97707.47;6215225;23;20048;-78
2023/09/04 05:30:44;;;;;;;5.60;5.10;;;;;;;16.26;69.22;97709.94;6214678;23;20025;-78
2023/09/04 05:33:12;;;;;;;15.07;6.13;;;;;;;16.30;69.42;97705.09;6214592;23;20470;-78
2023/09/04 05:35:39;;;;;;;19.35;6.28;;;;;;;16.34;69.12;97707.16;6215004;23;20017;-78
2023/09/04 05:38:08;;;;;;;13.10;6.68;;;;;;;16.43;71.17;97710.47;6215201;23;20087;-77
2023/09/04 05:40:36;;;;;;;9.80;5.95;;;;;;;16.50;71.11;97716.59;6216806;23;20043;-78
2023/09/04 05:43:04;;;;;;;8.65;6.00;;;;;;;16.48;69.80;97713.34;6223927;23;20083;-78
2023/09/04 05:45:32;;;;;;;11.10;6.20;;;;;;;16.43;69.58;97715.75;6215056;23;20021;-78
2023/09/04 05:47:59;;;;;;;9.60;6.47;;;;;;;16.38;69.79;97716.31;6214044;23;20024;-78
2023/09/04 05:50:27;;;;;;;5.97;5.43;;;;;;;16.37;70.05;97709.41;6214578;23;20056;-78
2023/09/04 05:52:54;;;;;;;6.50;5.80;;;;;;;16.36;70.02;97710.41;6213720;23;20421;-78
2023/09/04 05:55:23;;;;;;;5.43;4.85;;;;;;;16.37;70.17;97712.03;6214017;23;20462;-78
2023/09/04 05:57:51;;;;;;;5.30;4.80;;;;;;;16.41;70.19;97702.75;6215247;23;20409;-78
2023/09/04 06:00:21;;;;;;;8.48;6.20;;;;;;;16.50;73.02;97699.97;6214890;23;20025;-78
2023/09/04 06:02:49;;;;;;;8.23;5.53;;;;;;;16.57;72.64;97698.19;6214670;23;20032;-77
2023/09/04 06:05:16;;;;;;;9.02;5.53;;;;;;;16.60;71.46;97706.53;6215000;23;20083;-78
2023/09/04 06:07:44;;;;;;;9.07;6.20;;;;;;;16.63;74.29;97700.06;6215058;23;20025;-78
2023/09/04 06:10:12;;;;;;;11.40;6.15;;;;;;;16.67;71.78;97707.38;6217240;23;20043;-78
2023/09/04 06:12:41;;;;;;;10.38;6.18;;;;;;;16.68;71.68;97709.03;6217163;23;20027;-77
2023/09/04 06:15:10;;;;;;;8.65;5.43;;;;;;;16.69;70.20;97707.19;6217308;23;20024;-78
2023/09/04 06:17:37;;;;;;;7.75;5.50;;;;;;;16.75;72.33;97709.06;6230465;23;20040;-78
2023/09/04 06:20:06;;;;;;;5.22;4.82;;;;;;;16.81;69.66;97712.75;6234994;23;20072;-77
2023/09/04 06:22:34;;;;;;;5.53;4.65;;;;;;;16.88;71.20;97703.09;6219216;23;20017;-78
2023/09/04 06:25:02;;;;;;;8.40;5.20;;;;;;;16.96;69.10;97702.91;6216876;23;20362;-77
2023/09/04 06:27:29;;;;;;;10.60;5.13;;;;;;;17.04;68.57;97702.75;6216943;23;20484;-78
2023/09/04 06:29:58;;;;;;;6.50;4.20;;;;;;;17.13;68.19;97695.50;6216147;23;20028;-78
2023/09/04 06:32:26;;;;;;;5.97;4.75;;;;;;;17.23;68.25;97695.13;6216640;23;20094;-78
2023/09/04 06:34:54;;;;;;;5.18;4.55;;;;;;;17.34;67.80;97705.13;6216048;23;20099;-78
2023/09/04 06:37:21;;;;;;;5.68;5.07;;;;;;;17.50;71.50;97701.31;6216584;23;20020;-78
2023/09/04 06:39:49;;;;;;;6.57;5.80;;;;;;;17.67;72.89;97693.84;6216797;23;20025;-78
2023/09/04 06:42:16;;;;;;;6.60;5.68;;;;;;;17.74;69.05;97692.03;6216165;23;20072;-78
2023/09/04 06:44:44;;;;;;;5.28;4.78;;;;;;;17.81;68.83;97698.13;6216274;23;20024;-78
2023/09/04 06:47:13;;;;;;;5.00;4.47;;;;;;;17.91;67.67;97708.34;6216364;23;20020;-77
2023/09/04 06:49:41;;;;;;;5.00;4.25;;;;;;;18.02;66.05;97710.38;6216313;23;20346;-78
2023/09/04 06:52:09;;;;;;;4.50;4.10;;;;;;;18.15;65.22;97698.19;6215476;23;20024;-78
2023/09/04 06:54:40;;;;;;;5.28;4.28;;;;;;;18.29;65.40;97713.00;6216791;23;20103;-78
2023/09/04 06:57:08;;;;;;;6.70;4.53;;;;;;;18.45;67.47;97709.94;6216462;23;20021;-78
2023/09/04 06:59:35;;;;;;;6.45;3.88;;;;;;;18.60;65.29;97704.44;6216005;23;20016;-77
2023/09/04 07:02:03;;;;;;;4.68;4.18;;;;;;;18.74;64.25;97710.53;6215796;23;20017;-78
2023/09/04 07:04:32;;;;;;;4.82;4.05;;;;;;;18.87;63.71;97704.41;6216015;23;20024;-78
2023/09/04 07:07:00;;;;;;;4.60;4.00;;;;;;;19.02;62.82;97704.19;6216299;23;20358;-78
2023/09/04 07:09:29;;;;;;;4.07;3.53;;;;;;;19.18;64.76;97709.00;6216028;23;20051;-78
2023/09/04 07:11:57;;;;;;;4.80;3.45;;;;;;;19.35;64.15;97707.53;6216014;23;20079;-78
2023/09/04 07:14:25;;;;;;;7.57;3.92;;;;;;;19.51;62.66;97708.06;6215366;23;20028;-78
2023/09/04 07:16:52;;;;;;;5.72;3.30;;;;;;;19.67;62.33;97707.53;6215561;23;20028;-78
2023/09/04 07:19:36;;;;;;;5.30;3.97;;;;;;;19.84;60.29;97707.09;6215133;23;20063;-78
2023/09/04 07:22:04;;;;;;;4.05;3.00;;;;;;;19.97;60.49;97707.00;6215452;23;20025;-78
2023/09/04 07:24:31;;;;;;;4.22;3.55;;;;;;;20.13;60.86;97711.75;6215564;23;20091;-78
2023/09/04 07:26:59;;;;;;;4.53;3.35;;;;;;;20.28;59.65;97698.19;6215601;23;20470;-78
2023/09/04 07:29:26;;;;;;;5.60;3.50;;;;;;;20.47;61.20;97707.00;6215375;23;20028;-78
2023/09/04 07:31:56;;;;;;;4.88;3.10;;;;;;;20.66;59.59;97707.06;6215682;23;20024;-78
2023/09/04 07:34:24;;;;;;;3.78;2.70;;;;;;;20.83;59.43;97708.09;6214712;23;20032;-78
2023/09/04 07:36:53;;;;;;;3.60;3.13;;;;;;;20.99;58.25;97714.69;6215232;23;20016;-78
2023/09/04 07:39:20;;;;;;;5.60;2.97;;;;;;;21.14;56.68;97706.31;6215767;23;20359;-78
2023/09/04 07:41:48;;;;;;;4.82;3.10;;;;;;;21.29;56.29;97706.75;6215575;23;20028;-78
2023/09/04 07:44:16;;;;;;;5.80;3.20;;;;;;;21.49;55.56;97708.38;6215110;23;20024;-77
2023/09/04 07:46:43;;;;;;;2.90;2.50;;;;;;;21.68;54.51;97712.63;6215952;23;20049;-78
2023/09/04 07:49:12;;;;;;;3.83;2.70;;;;;;;21.85;54.87;97712.00;6215938;23;20024;-78
2023/09/04 07:51:40;;;;;;;2.70;2.50;;;;;;;22.02;54.00;97708.44;6226181;23;20024;-78
2023/09/04 07:54:11;;;;;;;4.57;2.50;;;;;;;22.22;52.88;97712.66;6216328;23;20370;-78
2023/09/04 07:56:39;;;;;;;3.03;2.27;;;;;;;22.43;53.48;97721.91;6216660;23;20046;-78
2023/09/04 07:59:10;;;;;;;3.08;2.78;;;;;;;22.64;55.33;97717.91;6216378;23;20107;-79
2023/09/04 08:01:38;;;;;;;2.40;2.20;;;;;;;22.84;52.41;97714.88;6215638;23;20016;-78
2023/09/04 08:04:07;;;;;;;2.42;2.22;;;;;;;23.03;52.55;97710.25;6215758;23;20336;-78
2023/09/04 08:06:36;;;;;;;2.95;2.20;;;;;;;23.22;51.32;97716.22;6216451;23;20477;-78
2023/09/04 08:09:05;;;;;;;2.55;2.35;;;;;;;23.44;51.05;97711.06;6216687;23;20044;-78
2023/09/04 08:11:36;;;;;;;2.78;2.58;;;;;;;23.68;49.88;97710.97;6216339;23;20032;-78
2023/09/04 08:14:04;;;;;;;4.97;3.05;;;;;;;23.91;49.86;97715.41;6216183;23;20021;-78
2023/09/04 08:16:33;;;;;;;2.40;2.20;;;;;;;24.12;48.49;97717.38;6216447;23;20028;-79
2023/09/04 08:19:02;;;;;;;2.90;2.25;;;;;;;24.36;47.96;97719.84;6216006;23;20020;-78
2023/09/04 08:21:35;;;;;;;3.03;2.60;;;;;;;24.56;46.31;97719.41;6216131;23;20091;-79
2023/09/04 08:24:03;;;;;;;3.47;2.45;;;;;;;24.70;44.98;97722.53;6215872;23;20025;-79
2023/09/04 08:26:31;;;;;;;3.63;2.60;;;;;;;24.78;44.83;97727.47;6215328;23;20035;-79
2023/09/04 08:29:01;;;;;;;4.25;2.55;;;;;;;24.92;43.98;97720.69;6215377;23;20020;-80
2023/09/04 08:31:28;;;;;;;2.28;2.08;;;;;;;25.05;44.24;97717.66;6215270;23;20052;-80
2023/09/04 08:33:56;;;;;;;2.22;2.03;;;;;;;25.28;43.78;97723.88;6214835;23;20024;-79
2023/09/04 08:36:24;;;;;;;2.95;2.58;;;;;;;25.58;42.97;97726.09;6215284;23;20017;-79
2023/09/04 08:38:51;;;;;;;2.42;2.25;;;;;;;26.11;42.25;97731.72;6214626;23;20024;-80
2023/09/04 08:41:22;;;;;;;3.20;2.47;;;;;;;27.18;40.42;97728.13;6215116;23;20111;-80
2023/09/04 08:43:49;;;;;;;2.85;2.55;;;;;;;28.40;38.43;97724.91;6214369;23;20021;-80
2023/09/04 08:46:20;;;;;;;2.60;2.25;;;;;;;29.50;38.46;97717.16;6215689;23;20020;-80
2023/09/04 08:48:49;;;;;;;2.28;2.17;;;;;;;30.46;34.60;97722.13;6215498;23;20138;-79
2023/09/04 08:51:16;;;;;;;2.30;2.10;;;;;;;31.26;33.22;97731.56;6215533;23;20025;-81
2023/09/04 08:53:44;;;;;;;2.45;2.25;;;;;;;31.83;31.23;97721.63;6214914;23;20458;-80
2023/09/04 08:56:13;;;;;;;2.20;2.00;;;;;;;32.32;29.63;97724.94;6215276;23;20078;-80
2023/09/04 08:58:42;;;;;;;2.83;2.00;;;;;;;32.83;28.51;97711.34;6214860;23;20115;-80
2023/09/04 09:01:12;;;;;;;5.90;1.85;;;;;;;33.38;27.68;97707.06;6215037;23;20400;-80
2023/09/04 09:03:42;;;;;;;1.90;1.80;;;;;;;33.74;25.86;97719.81;6214999;23;20017;-81
2023/09/04 09:06:11;;;;;;;3.00;2.00;;;;;;;33.92;26.40;97710.72;6217628;23;20087;-80
2023/09/04 09:08:39;;;;;;;2.58;1.73;;;;;;;34.24;26.57;97707.00;6218058;23;20020;-80
2023/09/04 09:11:24;;;;;;;3.25;2.28;;;;;;;34.59;25.96;97718.03;6216572;23;20517;-83
2023/09/04 09:13:57;;;;;;;2.72;2.00;;;;;;;34.95;24.67;97711.66;6216824;23;20399;-81
2023/09/04 09:16:24;;;;;;;3.03;2.00;;;;;;;35.12;25.45;97713.63;6216449;23;20024;-81
2023/09/04 09:18:54;;;;;;;4.82;2.53;;;;;;;35.17;24.54;97710.78;6216145;23;20033;-81
2023/09/04 09:21:24;;;;;;;3.30;2.50;;;;;;;35.31;23.97;97716.09;6217069;23;20105;-81
2023/09/04 09:24:10;;;;;;;1.95;1.83;;;;;;;35.47;24.10;97713.75;6216629;23;20339;-81
2023/09/04 09:26:39;;;;;;;3.28;2.10;;;;;;;35.73;24.45;97704.81;6216151;23;20025;-81
2023/09/04 09:29:10;;;;;;;2.10;1.73;;;;;;;35.96;23.71;97706.25;6216456;23;20021;-81
2023/09/04 09:31:38;;;;;;;2.30;2.10;;;;;;;36.06;24.38;97708.66;6216326;23;20339;-82
2023/09/04 09:34:08;;;;;;;3.17;2.20;;;;;;;36.02;24.09;97710.41;6215991;23;20382;-81
2023/09/04 09:36:36;;;;;;;3.05;1.90;;;;;;;35.85;24.37;97696.84;6216290;23;20410;-82
2023/09/04 09:39:04;;;;;;;4.15;2.08;;;;;;;35.42;23.57;97694.88;6216183;23;20025;-81
2023/09/04 09:41:32;;;;;;;2.72;1.83;;;;;;;34.64;25.08;97687.31;6215910;23;20099;-81
2023/09/04 09:44:01;;;;;;;4.20;1.73;;;;;;;33.90;24.82;97675.06;6217188;23;20060;-81
2023/09/04 09:46:30;;;;;;;2.45;1.73;;;;;;;33.19;25.84;97677.44;6217690;23;20082;-81
2023/09/04 09:48:59;;;;;;;1.95;1.70;;;;;;;32.57;27.05;97672.44;6217750;23;20032;-81
2023/09/04 09:51:28;;;;;;;9.80;2.30;;;;;;;32.02;27.27;97679.28;6217405;23;20343;-81
2023/09/04 09:53:57;;;;;;;2.03;1.73;;;;;;;31.67;27.67;97671.72;6217556;23;20071;-81
2023/09/04 09:56:25;;;;;;;3.67;1.42;;;;;;;31.48;27.65;97669.81;6217607;23;20028;-81
2023/09/04 09:58:53;;;;;;;2.50;2.30;;;;;;;31.51;28.19;97665.72;6217586;23;20346;-81
2023/09/04 10:01:21;;;;;;;5.50;2.00;;;;;;;31.78;27.63;97670.47;6219052;23;20413;-81
2023/09/04 10:03:50;;;;;;;4.97;2.05;;;;;;;32.13;27.12;97669.13;6218723;23;20087;-81
2023/09/04 10:06:23;;;;;;;1.73;1.63;;;;;;;32.47;26.02;97677.97;6218590;23;20024;-81
2023/09/04 10:08:53;;;;;;;4.05;2.03;;;;;;;32.59;25.43;97670.22;6218522;23;20044;-81
2023/09/04 10:11:22;;;;;;;1.67;1.58;;;;;;;32.53;24.40;97668.72;6217631;23;20024;-81
2023/09/04 10:13:59;;;;;;;3.45;1.67;;;;;;;32.31;25.11;97670.16;6217880;23;20108;-81
2023/09/04 10:16:33;;;;;;;2.75;1.42;;;;;;;32.04;24.62;97675.50;6217835;23;20025;-81
2023/09/04 10:19:03;;;;;;;1.63;1.52;;;;;;;31.77;26.00;97655.34;6218323;23;20459;-81
2023/09/04 10:21:34;;;;;;;3.42;1.92;;;;;;;31.52;25.18;97654.66;6217972;23;20335;-81
2023/09/04 10:24:09;;;;;;;1.48;1.35;;;;;;;31.21;25.32;97660.44;6217160;23;20095;-82
2023/09/04 10:26:47;;;;;;;1.70;1.60;;;;;;;30.95;27.32;97651.09;6217422;23;20021;-81
2023/09/04 10:29:19;;;;;;;1.95;1.70;;;;;;;30.84;27.10;97652.28;6217049;23;20020;-81
2023/09/04 10:31:48;;;;;;;2.60;1.92;;;;;;;30.67;27.04;97640.06;6217238;23;20075;-82
2023/09/04 10:34:16;;;;;;;2.70;1.90;;;;;;;30.46;27.20;97647.59;6216773;23;20094;-82
2023/09/04 10:36:44;;;;;;;1.95;1.50;;;;;;;30.24;27.43;97631.06;6216927;23;20482;-81
2023/09/04 10:39:14;;;;;;;2.60;1.90;;;;;;;30.09;28.00;97642.81;6216924;23;20075;-81
2023/09/04 10:41:42;;;;;;;2.03;1.60;;;;;;;30.01;28.18;97633.44;6216620;23;20354;-81
2023/09/04 10:44:11;;;;;;;2.38;1.58;;;;;;;29.99;28.06;97628.34;6216808;23;20079;-81
2023/09/04 10:46:56;;;;;;;1.80;1.70;;;;;;;29.87;28.67;97627.91;6216591;23;20107;-81
2023/09/04 10:49:31;;;;;;;1.98;1.75;;;;;;;29.68;29.47;97621.59;6216726;23;20040;-81
2023/09/04 10:51:58;;;;;;;2.75;1.77;;;;;;;29.52;29.14;97615.53;6216141;23;20021;-82
2023/09/04 10:54:27;;;;;;;2.10;1.88;;;;;;;29.33;29.17;97618.06;6215838;23;20035;-81
2023/09/04 10:56:57;;;;;;;2.15;1.73;;;;;;;29.14;29.94;97615.19;6216430;23;20021;-81
2023/09/04 10:59:26;;;;;;;2.85;1.60;;;;;;;29.03;31.35;97619.78;6216210;23;20027;-81
2023/09/04 11:01:53;;;;;;;2.00;1.85;;;;;;;28.95;31.25;97613.13;6216004;23;20021;-81
2023/09/04 11:04:43;;;;;;;3.03;1.95;;;;;;;28.85;31.91;97615.06;6215576;23;20401;-81
2023/09/04 11:07:26;;;;;;;2.10;1.90;;;;;;;28.78;32.30;97609.97;6215625;23;20401;-80
2023/09/04 11:10:03;;;;;;;2.70;1.85;;;;;;;28.72;33.81;97600.34;6215741;23;20023;-79
2023/09/04 11:12:34;;;;;;;1.88;1.77;;;;;;;28.73;33.00;97605.44;6214971;23;20478;-79
2023/09/04 11:15:10;;;;;;;2.50;1.80;;;;;;;28.71;32.65;97596.84;6215566;23;20075;-83
2023/09/04 11:17:39;;;;;;;2.40;1.92;;;;;;;28.70;32.76;97599.81;6215246;23;20021;-81
2023/09/04 11:20:10;;;;;;;2.00;1.70;;;;;;;28.74;33.27;97600.88;6215169;23;20103;-81
2023/09/04 11:22:37;;;;;;;2.03;1.67;;;;;;;28.81;32.98;97592.50;6215387;23;20021;-82
2023/09/04 11:25:07;;;;;;;2.10;1.85;;;;;;;28.86;32.32;97595.16;6215468;23;20025;-81
2023/09/04 11:27:35;;;;;;;2.10;1.88;;;;;;;28.82;30.42;97597.63;6215361;23;20016;-81
2023/09/04 11:30:02;;;;;;;3.22;1.80;;;;;;;28.68;29.85;97596.59;6215556;23;20051;-81
2023/09/04 11:32:30;;;;;;;2.00;1.90;;;;;;;28.53;30.48;97586.69;6215391;23;20025;-81
2023/09/04 11:34:58;;;;;;;2.47;1.98;;;;;;;28.49;30.43;97593.69;6215594;23;20405;-81
2023/09/04 11:37:31;;;;;;;3.38;1.75;;;;;;;28.45;29.59;97592.63;6215622;23;20024;-81
2023/09/04 11:40:00;;;;;;;3.25;1.95;;;;;;;28.38;29.81;97586.72;6215781;23;20050;-81
2023/09/04 11:42:33;;;;;;;1.67;1.58;;;;;;;28.21;29.74;97595.91;6214738;23;20075;-81